Aviation Digital Data Service (ADDS)

Output produced by METARs form (1428 UTC 16 April 2014)
found at http://aviationweather.gov/adds/metars/
 
KMPV 161135Z 1612/1712 33012G20KT P6SM BKN035 
     TEMPO 1612/1614 BKN025 
     FM161700 32010KT P6SM SKC 
     FM162200 VRB06KT P6SM SKC